createdAt,value
2018-06-22T00:02:09.492Z,99.90
2018-06-22T00:04:38.007Z,99.90
2018-06-22T00:07:06.427Z,99.90
2018-06-22T00:09:34.684Z,99.90
2018-06-22T00:12:03.041Z,99.90
2018-06-22T00:14:31.399Z,99.90
2018-06-22T00:16:59.935Z,99.90
2018-06-22T00:19:28.172Z,99.90
2018-06-22T00:21:56.402Z,99.90
2018-06-22T00:24:24.932Z,99.90
2018-06-22T00:26:53.109Z,99.90
2018-06-22T00:29:21.316Z,99.90
2018-06-22T00:31:49.646Z,99.90
2018-06-22T00:34:17.836Z,99.90
2018-06-22T00:36:46.114Z,99.90
2018-06-22T00:39:14.297Z,99.90
2018-06-22T00:41:43.457Z,99.90
2018-06-22T00:44:11.694Z,99.90
2018-06-22T00:46:39.840Z,99.90
2018-06-22T00:49:08.168Z,99.90
2018-06-22T00:51:36.456Z,99.90
2018-06-22T00:54:15.827Z,99.90
2018-06-22T00:56:44.420Z,99.90
2018-06-22T00:59:13.037Z,99.90
2018-06-22T01:01:41.447Z,99.90
2018-06-22T01:04:10.451Z,99.90
2018-06-22T01:06:38.668Z,99.90
2018-06-22T01:09:09.626Z,99.90
2018-06-22T01:11:37.814Z,99.90
2018-06-22T01:14:06.265Z,99.90
2018-06-22T01:16:35.806Z,99.90
2018-06-22T01:19:04.514Z,99.90
2018-06-22T01:21:32.853Z,99.90
2018-06-22T01:24:01.123Z,99.90
2018-06-22T01:26:29.628Z,99.90
2018-06-22T01:29:03.274Z,99.90
2018-06-22T01:31:31.517Z,99.90
2018-06-22T01:33:59.909Z,99.90
2018-06-22T01:36:28.173Z,99.90
2018-06-22T01:38:56.661Z,99.90
2018-06-22T01:41:25.678Z,99.90
2018-06-22T01:43:54.100Z,99.90
2018-06-22T01:46:23.215Z,99.90
2018-06-22T01:48:51.650Z,99.90
2018-06-22T01:51:20.084Z,99.90
2018-06-22T01:53:48.582Z,99.90
2018-06-22T01:56:16.965Z,99.90
2018-06-22T01:58:46.527Z,99.90
2018-06-22T02:01:15.007Z,99.90
2018-06-22T02:03:43.777Z,99.90
2018-06-22T02:06:12.112Z,99.90
2018-06-22T02:08:41.586Z,99.90
2018-06-22T02:11:10.285Z,99.90
2018-06-22T02:13:39.267Z,99.90
2018-06-22T02:16:07.761Z,99.90
2018-06-22T02:18:36.127Z,99.90
2018-06-22T02:21:04.419Z,99.90
2018-06-22T02:23:32.697Z,99.90
2018-06-22T02:26:01.115Z,99.90
2018-06-22T02:28:29.516Z,99.90
2018-06-22T02:30:58.211Z,99.90
2018-06-22T02:33:26.639Z,99.90
2018-06-22T02:35:55.096Z,99.90
2018-06-22T02:38:23.701Z,99.90
2018-06-22T02:40:52.041Z,99.90
2018-06-22T02:43:20.489Z,99.90
2018-06-22T02:45:48.845Z,99.90
2018-06-22T02:48:17.034Z,99.90
2018-06-22T02:50:45.303Z,99.90
2018-06-22T02:53:13.608Z,99.90
2018-06-22T02:55:42.817Z,99.90
2018-06-22T02:58:11.127Z,99.90
2018-06-22T03:00:39.371Z,99.90
2018-06-22T03:03:07.680Z,99.90
2018-06-22T03:05:36.042Z,99.90
2018-06-22T03:08:04.400Z,99.90
2018-06-22T03:10:32.647Z,99.90
2018-06-22T03:13:00.857Z,99.90
2018-06-22T03:15:29.266Z,99.90
2018-06-22T03:17:57.469Z,99.90
2018-06-22T03:20:25.743Z,99.90
2018-06-22T03:22:54.027Z,99.90
2018-06-22T03:25:22.372Z,99.90
2018-06-22T03:27:50.913Z,99.90
2018-06-22T03:30:19.169Z,99.90
2018-06-22T03:32:47.404Z,99.90
2018-06-22T03:35:15.751Z,99.90
2018-06-22T03:37:44.133Z,99.90
2018-06-22T03:40:12.535Z,99.90
2018-06-22T03:42:40.971Z,99.90
2018-06-22T03:45:09.401Z,99.90
2018-06-22T03:47:37.676Z,99.90
2018-06-22T03:50:06.266Z,99.90
2018-06-22T03:52:34.898Z,99.90
2018-06-22T03:55:03.553Z,99.90
2018-06-22T03:57:31.869Z,99.90
2018-06-22T04:00:00.442Z,99.90
2018-06-22T04:02:28.719Z,99.90
2018-06-22T04:04:56.955Z,99.90
2018-06-22T04:07:25.819Z,99.90
2018-06-22T04:09:54.135Z,99.90
2018-06-22T04:12:23.393Z,99.90
2018-06-22T04:14:52.118Z,99.90
2018-06-22T04:17:20.402Z,99.90
2018-06-22T04:19:49.004Z,99.90
2018-06-22T04:22:17.204Z,99.90
2018-06-22T04:24:45.735Z,99.90
2018-06-22T04:27:14.190Z,99.90
2018-06-22T04:29:42.465Z,99.90
2018-06-22T04:32:10.720Z,99.90
2018-06-22T04:34:39.216Z,99.90
2018-06-22T04:37:07.808Z,99.90
2018-06-22T04:39:36.199Z,99.90
2018-06-22T04:42:04.690Z,99.90
2018-06-22T04:44:33.588Z,99.90
2018-06-22T04:47:02.246Z,99.90
2018-06-22T04:49:30.820Z,99.90
2018-06-22T04:51:59.352Z,99.50
2018-06-22T04:54:27.897Z,98.20
2018-06-22T04:56:56.613Z,97.50
2018-06-22T04:59:24.996Z,96.50
2018-06-22T05:01:53.350Z,95.90
2018-06-22T05:04:22.052Z,96.00
2018-06-22T05:06:50.599Z,96.80
2018-06-22T05:09:18.937Z,97.20
2018-06-22T05:11:47.249Z,96.20
2018-06-22T05:14:15.737Z,96.00
2018-06-22T05:16:44.391Z,94.80
2018-06-22T05:19:12.680Z,95.00
2018-06-22T05:21:40.981Z,95.40
2018-06-22T05:24:09.343Z,93.40
2018-06-22T05:26:37.638Z,92.00
2018-06-22T05:29:05.845Z,90.20
2018-06-22T05:31:34.241Z,87.60
2018-06-22T05:34:02.537Z,82.90
2018-06-22T05:36:31.486Z,79.60
2018-06-22T05:38:59.784Z,75.50
2018-06-22T05:41:28.141Z,75.40
2018-06-22T05:43:56.498Z,71.10
2018-06-22T05:46:25.194Z,70.40
2018-06-22T05:48:53.588Z,70.20
2018-06-22T05:51:21.927Z,70.70
2018-06-22T05:53:50.315Z,69.40
2018-06-22T05:56:18.661Z,69.00
2018-06-22T05:58:47.154Z,69.00
2018-06-22T06:01:15.419Z,68.40
2018-06-22T06:03:44.318Z,70.30
2018-06-22T06:06:12.845Z,69.80
2018-06-22T06:08:41.064Z,71.30
2018-06-22T06:11:10.934Z,71.60
2018-06-22T06:13:39.520Z,71.90
2018-06-22T06:16:08.264Z,67.60
2018-06-22T06:18:36.614Z,66.20
2018-06-22T06:21:05.291Z,66.10
2018-06-22T06:23:33.584Z,66.40
2018-06-22T06:26:01.889Z,66.50
2018-06-22T06:28:30.625Z,66.50
2018-06-22T06:30:59.162Z,65.90
2018-06-22T06:33:28.236Z,63.80
2018-06-22T06:35:56.736Z,61.90
2018-06-22T06:38:31.467Z,60.80
2018-06-22T06:40:59.843Z,59.60
2018-06-22T06:43:28.877Z,57.00
2018-06-22T06:45:57.188Z,54.20
2018-06-22T06:48:25.790Z,53.30
2018-06-22T06:50:54.355Z,53.30
2018-06-22T06:53:22.724Z,53.60
2018-06-22T06:55:51.373Z,52.50
2018-06-22T06:58:19.827Z,53.50
2018-06-22T07:00:48.841Z,53.00
2018-06-22T07:03:17.642Z,52.90
2018-06-22T07:08:14.406Z,52.00
2018-06-22T07:10:43.380Z,53.00
2018-06-22T07:13:12.018Z,53.00
2018-06-22T07:15:41.447Z,52.10
2018-06-22T07:18:10.259Z,51.60
2018-06-22T07:20:39.079Z,51.50
2018-06-22T07:23:08.213Z,50.90
2018-06-22T07:25:36.537Z,50.00
2018-06-22T07:28:06.793Z,49.60
2018-06-22T07:30:35.888Z,49.80
2018-06-22T07:33:04.348Z,50.40
2018-06-22T07:35:32.786Z,50.30
2018-06-22T07:38:01.593Z,50.90
2018-06-22T07:40:30.174Z,51.60
2018-06-22T07:45:27.251Z,52.60
2018-06-22T07:47:55.548Z,64.70
2018-06-22T07:50:24.614Z,74.70
2018-06-22T07:52:53.094Z,83.80
2018-06-22T07:55:21.462Z,90.50
2018-06-22T07:57:50.545Z,91.20
2018-06-22T08:00:19.050Z,92.90
2018-06-22T08:02:47.439Z,91.30
2018-06-22T08:05:15.776Z,91.00
2018-06-22T08:07:45.145Z,91.80
2018-06-22T08:10:14.428Z,88.20
2018-06-22T08:12:43.192Z,88.60
2018-06-22T08:15:11.472Z,78.70
2018-06-22T08:17:39.894Z,74.60
2018-06-22T08:20:08.607Z,74.50
2018-06-22T08:22:37.091Z,69.40
2018-06-22T08:25:05.538Z,66.30
2018-06-22T08:27:33.878Z,63.70
2018-06-22T08:30:02.736Z,62.60
2018-06-22T08:32:31.063Z,59.20
2018-06-22T08:34:59.529Z,56.90
2018-06-22T08:37:28.739Z,56.50
2018-06-22T08:39:57.156Z,55.70
2018-06-22T08:42:25.569Z,56.70
2018-06-22T08:44:54.020Z,55.80
2018-06-22T08:47:22.493Z,58.20
2018-06-22T08:49:51.668Z,62.90
2018-06-22T08:52:19.937Z,73.50
2018-06-22T08:54:48.998Z,77.70
2018-06-22T08:57:17.338Z,79.00
2018-06-22T08:59:46.058Z,77.40
2018-06-22T09:02:14.372Z,70.00
2018-06-22T09:04:42.993Z,60.80
2018-06-22T09:07:11.579Z,58.00
2018-06-22T09:09:40.094Z,54.70
2018-06-22T09:12:08.378Z,53.90
2018-06-22T09:14:36.719Z,52.20
2018-06-22T09:17:05.250Z,51.30
2018-06-22T09:19:33.658Z,49.50
2018-06-22T09:22:02.188Z,48.00
2018-06-22T09:24:30.384Z,49.90
2018-06-22T09:26:58.738Z,56.40
2018-06-22T09:29:27.558Z,66.20
2018-06-22T09:31:55.905Z,72.40
2018-06-22T09:34:24.362Z,84.00
2018-06-22T09:36:52.746Z,80.10
2018-06-22T09:39:20.997Z,81.20
2018-06-22T09:41:49.244Z,83.90
2018-06-22T09:44:29.021Z,87.40
2018-06-22T09:46:58.403Z,87.50
2018-06-22T09:49:27.140Z,90.20
2018-06-22T09:51:55.746Z,82.10
2018-06-22T09:54:24.209Z,84.00
2018-06-22T09:56:52.919Z,87.70
2018-06-22T09:59:21.836Z,85.40
2018-06-22T10:01:50.882Z,91.40
2018-06-22T10:04:19.324Z,93.20
2018-06-22T10:06:48.599Z,92.60
2018-06-22T10:09:17.207Z,82.40
2018-06-22T10:14:13.899Z,62.20
2018-06-22T10:16:42.209Z,63.80
2018-06-22T10:19:10.504Z,62.80
2018-06-22T10:21:39.753Z,77.40
2018-06-22T10:24:08.378Z,79.10
2018-06-22T10:26:36.763Z,87.40
2018-06-22T10:29:05.589Z,90.90
2018-06-22T10:31:33.987Z,93.10
2018-06-22T10:34:02.812Z,88.60
2018-06-22T10:36:31.185Z,96.00
2018-06-22T10:38:59.575Z,98.20
2018-06-22T10:41:28.228Z,99.90
2018-06-22T10:43:56.592Z,99.80
2018-06-22T10:46:24.873Z,95.80
2018-06-22T10:48:53.705Z,98.20
2018-06-22T10:51:22.442Z,94.50
2018-06-22T10:53:50.635Z,97.00
2018-06-22T10:56:19.780Z,92.50
2018-06-22T10:58:48.042Z,82.20
2018-06-22T11:01:16.785Z,82.00
2018-06-22T11:03:45.524Z,76.40
2018-06-22T11:06:14.012Z,76.30
2018-06-22T11:08:42.628Z,76.10
2018-06-22T11:11:11.045Z,64.20
2018-06-22T11:13:39.647Z,71.20
2018-06-22T11:16:07.941Z,74.80
2018-06-22T11:18:36.212Z,74.70
2018-06-22T11:21:04.709Z,82.20
2018-06-22T11:23:33.022Z,78.80
2018-06-22T11:26:02.095Z,87.20
2018-06-22T11:28:30.374Z,81.80
2018-06-22T11:30:58.872Z,86.00
2018-06-22T11:33:27.363Z,83.20
2018-06-22T11:35:55.855Z,91.80
2018-06-22T11:38:24.718Z,99.90
2018-06-22T11:40:53.118Z,99.90
2018-06-22T11:43:21.732Z,97.30
2018-06-22T11:45:51.393Z,95.60
2018-06-22T11:48:19.962Z,91.70
2018-06-22T11:50:48.344Z,91.20
2018-06-22T11:53:16.595Z,90.20
2018-06-22T11:55:46.349Z,80.20
2018-06-22T11:58:14.819Z,81.90
2018-06-22T12:00:43.449Z,82.10
2018-06-22T12:03:11.733Z,92.70
2018-06-22T12:05:40.083Z,93.30
2018-06-22T12:08:08.326Z,80.60
2018-06-22T12:13:04.823Z,73.80
2018-06-22T12:15:33.191Z,66.30
2018-06-22T12:18:01.716Z,62.10
2018-06-22T12:20:30.045Z,67.30
2018-06-22T12:22:58.511Z,72.40
2018-06-22T12:25:27.316Z,74.20
2018-06-22T12:27:55.839Z,75.60
2018-06-22T12:30:24.837Z,74.70
2018-06-22T12:32:53.186Z,57.40
2018-06-22T12:35:21.845Z,55.00
2018-06-22T12:37:50.546Z,56.50
2018-06-22T12:40:19.074Z,57.70
2018-06-22T12:42:47.500Z,56.60
2018-06-22T12:45:15.987Z,56.60
2018-06-22T12:47:44.478Z,57.00
2018-06-22T12:50:16.305Z,54.80
2018-06-22T12:52:45.607Z,54.30
2018-06-22T12:55:14.014Z,55.70
2018-06-22T12:57:43.317Z,59.10
2018-06-22T13:00:11.798Z,60.00
2018-06-22T13:02:40.286Z,58.20
2018-06-22T13:05:08.774Z,57.30
2018-06-22T13:07:38.272Z,50.50
2018-06-22T13:10:06.861Z,50.80
2018-06-22T13:12:35.478Z,49.70
2018-06-22T13:15:06.496Z,48.00
2018-06-22T13:17:35.190Z,48.50
2018-06-22T13:20:04.681Z,47.90
2018-06-22T13:22:33.142Z,48.60
2018-06-22T13:25:01.471Z,44.80
2018-06-22T13:27:29.877Z,44.60
2018-06-22T13:29:58.180Z,44.20
2018-06-22T13:32:26.503Z,44.60
2018-06-22T13:34:54.893Z,44.80
2018-06-22T13:37:24.204Z,45.60
2018-06-22T13:39:52.627Z,46.80
2018-06-22T13:42:21.055Z,46.90
2018-06-22T13:44:49.295Z,47.10
2018-06-22T13:47:17.695Z,47.00
2018-06-22T13:49:55.817Z,46.00
2018-06-22T13:52:24.238Z,45.30
2018-06-22T13:54:52.741Z,44.10
2018-06-22T13:57:21.121Z,43.60
2018-06-22T13:59:49.449Z,43.40
2018-06-22T14:02:17.915Z,43.40
2018-06-22T14:04:51.700Z,43.40
2018-06-22T14:07:20.005Z,43.50
2018-06-22T14:09:48.691Z,43.50
2018-06-22T14:12:17.276Z,43.80
2018-06-22T14:14:45.878Z,44.00
2018-06-22T14:17:14.210Z,44.70
2018-06-22T14:19:42.655Z,46.90
2018-06-22T14:24:42.848Z,48.70
2018-06-22T14:27:11.233Z,48.30
2018-06-22T14:29:39.613Z,48.50
2018-06-22T14:32:07.885Z,47.90
2018-06-22T14:34:36.185Z,47.50
2018-06-22T14:37:04.905Z,46.60
2018-06-22T14:39:33.385Z,46.40
2018-06-22T14:42:02.595Z,46.60
2018-06-22T14:44:31.041Z,45.40
2018-06-22T14:46:59.455Z,45.00
2018-06-22T14:49:27.848Z,44.80
2018-06-22T14:52:00.401Z,44.10
2018-06-22T14:54:34.219Z,43.00
2018-06-22T14:59:11.927Z,44.80
2018-06-22T15:01:46.147Z,45.40
2018-06-22T15:05:23.180Z,45.50
2018-06-22T15:07:54.012Z,45.80
2018-06-22T15:10:22.622Z,45.40
2018-06-22T15:12:51.222Z,43.80
2018-06-22T15:15:19.570Z,44.80
2018-06-22T15:17:52.366Z,44.20
2018-06-22T15:20:21.350Z,43.50
2018-06-22T15:22:49.638Z,43.50
2018-06-22T15:25:18.282Z,42.60
2018-06-22T15:27:47.002Z,43.20
2018-06-22T15:30:15.578Z,43.30
2018-06-22T15:32:43.929Z,43.40
2018-06-22T15:35:17.825Z,42.70
2018-06-22T15:37:51.775Z,43.30
2018-06-22T15:40:26.411Z,43.00
2018-06-22T15:43:01.048Z,43.60
2018-06-22T15:47:37.318Z,44.00
2018-06-22T15:50:11.399Z,42.70
2018-06-22T15:52:45.006Z,41.50
2018-06-22T15:55:22.576Z,41.90
2018-06-22T15:57:50.999Z,42.30
2018-06-22T16:00:19.773Z,42.50
2018-06-22T16:02:55.145Z,43.10
2018-06-22T16:05:23.693Z,44.20
2018-06-22T16:07:52.041Z,44.30
2018-06-22T16:10:20.678Z,44.80
2018-06-22T16:12:49.034Z,45.10
2018-06-22T16:15:23.104Z,45.80
2018-06-22T16:17:57.332Z,45.20
2018-06-22T16:20:31.046Z,46.90
2018-06-22T16:23:05.870Z,46.90
2018-06-22T16:25:39.602Z,46.60
2018-06-22T16:28:08.518Z,47.10
2018-06-22T16:30:36.892Z,47.10
2018-06-22T16:33:05.201Z,47.10
2018-06-22T16:35:33.518Z,47.40
2018-06-22T16:38:02.137Z,47.10
2018-06-22T16:40:30.505Z,47.20
2018-06-22T16:42:58.974Z,47.80
2018-06-22T16:45:27.259Z,49.30
2018-06-22T16:47:55.478Z,48.40
2018-06-22T16:50:23.812Z,49.20
2018-06-22T16:52:52.106Z,48.70
2018-06-22T16:55:20.412Z,49.20
2018-06-22T16:57:48.665Z,49.00
2018-06-22T17:00:17.150Z,48.20
2018-06-22T17:02:45.931Z,48.20
2018-06-22T17:05:14.571Z,48.90
2018-06-22T17:07:48.440Z,48.90
2018-06-22T17:10:22.136Z,49.20
2018-06-22T17:12:55.719Z,48.90
2018-06-22T17:15:29.502Z,48.90
2018-06-22T17:18:03.224Z,48.90
2018-06-22T17:20:31.904Z,48.50
2018-06-22T17:23:00.565Z,48.70
2018-06-22T17:25:28.862Z,48.30
2018-06-22T17:27:57.214Z,48.60
2018-06-22T17:30:25.467Z,49.00
2018-06-22T17:32:53.775Z,48.40
2018-06-22T17:35:22.918Z,48.80
2018-06-22T17:37:51.279Z,49.00
2018-06-22T17:40:19.627Z,49.40
2018-06-22T17:42:48.069Z,49.20
2018-06-22T17:45:16.467Z,49.30
2018-06-22T17:47:45.384Z,49.00
2018-06-22T17:50:19.179Z,49.30
2018-06-22T17:52:47.522Z,49.40
2018-06-22T17:55:15.728Z,49.40
2018-06-22T17:57:44.192Z,50.50
2018-06-22T18:00:17.854Z,50.90
2018-06-22T18:02:51.604Z,51.40
2018-06-22T18:05:26.055Z,53.30
2018-06-22T18:07:54.278Z,60.60
2018-06-22T18:10:27.996Z,66.90
2018-06-22T18:12:58.016Z,66.20
2018-06-22T18:15:26.147Z,64.60
2018-06-22T18:17:54.632Z,58.80
2018-06-22T18:20:24.107Z,57.50
2018-06-22T18:22:52.670Z,58.20
2018-06-22T18:25:20.869Z,54.90
2018-06-22T18:27:49.244Z,54.80
2018-06-22T18:30:19.215Z,54.90
2018-06-22T18:32:47.439Z,56.40
2018-06-22T18:35:16.169Z,55.60
2018-06-22T18:37:44.752Z,54.60
2018-06-22T18:40:13.416Z,54.90
2018-06-22T18:42:42.385Z,54.50
2018-06-22T18:45:11.929Z,55.60
2018-06-22T18:47:40.950Z,55.60
2018-06-22T18:50:10.329Z,57.10
2018-06-22T18:52:45.155Z,56.10
2018-06-22T18:55:18.788Z,56.60
2018-06-22T18:57:52.465Z,56.50
2018-06-22T19:00:26.195Z,56.60
2018-06-22T19:03:00.425Z,57.80
2018-06-22T19:05:28.733Z,56.70
2018-06-22T19:07:57.052Z,57.50
2018-06-22T19:12:54.122Z,56.60
2018-06-22T19:15:22.669Z,56.70
2018-06-22T19:17:51.230Z,57.10
2018-06-22T19:20:20.043Z,58.30
2018-06-22T19:22:48.758Z,58.80
2018-06-22T19:25:17.268Z,59.50
2018-06-22T19:27:45.858Z,59.80
2018-06-22T19:30:14.484Z,59.60
2018-06-22T19:32:43.902Z,59.90
2018-06-22T19:35:13.510Z,59.10
2018-06-22T19:37:43.246Z,59.40
2018-06-22T19:40:11.741Z,60.90
2018-06-22T19:42:40.084Z,62.50
2018-06-22T19:45:13.788Z,62.20
2018-06-22T19:47:47.363Z,63.40
2018-06-22T19:50:20.958Z,62.70
2018-06-22T19:53:58.264Z,62.90
2018-06-22T19:56:26.610Z,64.50
2018-06-22T19:58:55.019Z,65.40
2018-06-22T20:01:23.418Z,65.90
2018-06-22T20:03:51.712Z,65.40
2018-06-22T20:06:20.154Z,65.00
2018-06-22T20:08:49.195Z,66.80
2018-06-22T20:11:17.907Z,67.80
2018-06-22T20:13:46.684Z,67.90
2018-06-22T20:16:15.391Z,67.30
2018-06-22T20:18:44.002Z,68.10
2018-06-22T20:21:12.236Z,69.60
2018-06-22T20:23:40.498Z,67.70
2018-06-22T20:26:08.984Z,69.70
2018-06-22T20:28:37.347Z,70.30
2018-06-22T20:31:05.645Z,72.50
2018-06-22T20:33:33.927Z,74.00
2018-06-22T20:38:41.260Z,75.10
2018-06-22T20:41:14.937Z,77.20
2018-06-22T20:43:48.618Z,77.70
2018-06-22T20:46:21.409Z,79.30
2018-06-22T20:48:55.152Z,79.10
2018-06-22T20:51:23.490Z,81.20
2018-06-22T20:53:51.855Z,81.40
2018-06-22T20:56:20.634Z,82.40
2018-06-22T20:58:49.932Z,83.40
2018-06-22T21:01:18.425Z,84.70
2018-06-22T21:03:46.776Z,85.60
2018-06-22T21:06:15.122Z,87.20
2018-06-22T21:08:43.812Z,88.20
2018-06-22T21:11:12.089Z,90.00
2018-06-22T21:13:40.534Z,90.70
2018-06-22T21:16:08.855Z,91.40
2018-06-22T21:18:37.411Z,92.20
2018-06-22T21:22:14.703Z,93.70
2018-06-22T21:24:43.426Z,93.80
2018-06-22T21:27:17.270Z,93.90
2018-06-22T21:29:51.165Z,94.20
2018-06-22T21:32:24.785Z,94.30
2018-06-22T21:34:59.426Z,94.70
2018-06-22T21:37:33.216Z,93.50
2018-06-22T21:40:02.213Z,93.60
2018-06-22T21:42:30.404Z,93.30
2018-06-22T21:44:59.247Z,93.20
2018-06-22T21:47:27.854Z,93.10
2018-06-22T21:49:56.187Z,93.10
2018-06-22T21:52:24.735Z,93.10
2018-06-22T21:54:53.041Z,91.60
2018-06-22T21:57:22.879Z,92.20
2018-06-22T21:59:51.263Z,91.60
2018-06-22T22:02:19.893Z,91.20
2018-06-22T22:04:48.315Z,90.80
2018-06-22T22:07:16.650Z,90.80
2018-06-22T22:09:44.889Z,90.50
2018-06-22T22:12:13.239Z,89.60
2018-06-22T22:14:42.356Z,90.70
2018-06-22T22:17:10.631Z,92.50
2018-06-22T22:19:39.287Z,93.60
2018-06-22T22:22:08.102Z,94.30
2018-06-22T22:24:36.317Z,95.80
2018-06-22T22:27:04.906Z,97.00
2018-06-22T22:29:33.357Z,98.40
2018-06-22T22:32:01.812Z,99.50
2018-06-22T22:34:30.211Z,99.90
2018-06-22T22:36:58.773Z,99.90
2018-06-22T22:39:27.001Z,99.90
2018-06-22T22:41:55.262Z,99.90
2018-06-22T22:44:23.715Z,99.90
2018-06-22T22:46:51.981Z,99.90
2018-06-22T22:49:20.190Z,99.90
2018-06-22T22:51:48.403Z,99.90
2018-06-22T22:54:16.602Z,99.90
2018-06-22T22:56:44.919Z,99.90
2018-06-22T22:59:13.191Z,99.90
2018-06-22T23:01:41.615Z,99.90
2018-06-22T23:04:09.945Z,99.90
2018-06-22T23:06:38.241Z,99.90
2018-06-22T23:09:08.146Z,99.90
2018-06-22T23:11:36.925Z,99.90
2018-06-22T23:14:05.606Z,99.90
2018-06-22T23:16:34.421Z,99.90
2018-06-22T23:19:03.093Z,99.90
2018-06-22T23:21:31.378Z,99.90
2018-06-22T23:23:59.682Z,99.90
2018-06-22T23:26:28.038Z,99.90
2018-06-22T23:28:56.401Z,99.90
2018-06-22T23:31:24.725Z,99.90
2018-06-22T23:33:53.977Z,99.90
2018-06-22T23:36:22.244Z,99.90
2018-06-22T23:38:50.566Z,99.90
2018-06-22T23:41:18.800Z,99.90
2018-06-22T23:43:47.036Z,99.90
2018-06-22T23:46:15.325Z,99.90
2018-06-22T23:48:43.936Z,99.90
2018-06-22T23:51:13.611Z,99.90
2018-06-22T23:53:41.825Z,99.90
2018-06-22T23:56:10.166Z,99.90
2018-06-22T23:58:38.469Z,99.90
